Latest Weather Observations for Kurnell

IDN60801

Issued at 9:32 am EDT Monday 15 February 2016 (issued every 30 minutes, with the page automatically refreshed every 10 minutes)

About weather observations | Map of weather stations | Latest weather observations for NSW | Other Formats
Station Details ID: 066043 Name: KURNELL AWS Lat: -34.00 Lon: 151.21 Height: 4.0 m
Data from the previous 72 hours. | See also: Recent months for locations in New South Wales
Date/Time
EDT
Temp
°C
App
Temp
°C
Dew
Point
Rel
Hum
%
Delta-T
°C
Wind Press
QNH
hPa
Press
MSL
hPa
Rain
since 9 am
mm
Dir
 
Spd
km/h
Gust
km/h
Spd
kts
Gust
kts
15/09:30am - - - - - SW 22 26 12 14 - - -
15/09:00am - - - - - SW 20 28 11 15 - - -
15/08:30am - - - - - SW 22 30 12 16 - - -
15/08:00am - - - - - SW 19 24 10 13 - - -
15/07:30am - - - - - SW 17 20 9 11 - - -
15/07:00am - - - - - SW 19 26 10 14 - - -
15/06:30am - - - - - SSW 24 32 13 17 - - -
15/06:00am - - - - - SSW 24 32 13 17 - - -
15/05:30am - - - - - SSW 22 28 12 15 - - -
15/05:00am - - - - - SSW 22 30 12 16 - - -
15/04:30am - - - - - SSW 28 35 15 19 - - -
15/04:00am - - - - - SSW 26 33 14 18 - - -
15/03:30am - - - - - SSW 22 33 12 18 - - -
15/03:00am - - - - - SW 28 33 15 18 - - -
15/02:30am - - - - - SW 22 32 12 17 - - -
15/02:00am - - - - - SSW 24 33 13 18 - - -
15/01:30am - - - - - SSW 26 32 14 17 - - -
15/01:00am - - - - - SSW 26 37 14 20 - - -
15/12:30am - - - - - SSW 28 33 15 18 - - -
15/12:00am - - - - - S 26 33 14 18 - - -
 
Date/Time
EDT
Temp
°C
App
Temp
°C
Dew
Point
Rel
Hum
%
Delta-T
°C
Wind Press
QNH
hPa
Press
MSL
hPa
Rain
since 9 am
mm
Dir
 
Spd
km/h
Gust
km/h
Spd
kts
Gust
kts
14/11:30pm - - - - - S 30 37 16 20 - - -
14/11:00pm - - - - - S 32 41 17 22 - - -
14/10:30pm - - - - - S 32 41 17 22 - - -
14/10:00pm - - - - - S 30 39 16 21 - - -
14/09:30pm - - - - - S 35 50 19 27 - - -
14/09:01pm - - - - - S 32 50 17 27 - - -
14/09:00pm - - - - - S 32 41 17 22 - - -
14/08:30pm - - - - - S 32 39 17 21 - - -
14/08:00pm - - - - - S 32 43 17 23 - - -
14/07:30pm - - - - - S 32 39 17 21 - - -
14/07:00pm - - - - - S 30 39 16 21 - - -
14/06:30pm - - - - - S 32 41 17 22 - - -
14/06:00pm - - - - - S 33 44 18 24 - - -
14/05:30pm - - - - - S 30 43 16 23 - - -
14/05:00pm - - - - - S 32 43 17 23 - - -
14/04:30pm - - - - - S 32 46 17 25 - - -
14/04:00pm - - - - - S 28 35 15 19 - - -
14/03:30pm - - - - - S 30 37 16 20 - - -
14/03:00pm - - - - - S 30 37 16 20 - - -
14/02:46pm - - - - - SSW 22 35 12 19 - - -
14/02:30pm - - - - - E 11 15 6 8 - - -
14/02:00pm - - - - - E 24 28 13 15 - - -
14/01:30pm - - - - - ENE 24 28 13 15 - - -
14/01:00pm - - - - - NE 26 30 14 16 - - -
14/12:30pm - - - - - ENE 26 30 14 16 - - -
14/12:00pm - - - - - ENE 19 24 10 13 - - -
14/11:30am - - - - - ENE 15 19 8 10 - - -
14/11:00am - - - - - ENE 9 13 5 7 - - -
14/10:30am - - - - - N 11 13 6 7 - - -
14/10:00am - - - - - NNW 11 13 6 7 - - -
14/09:30am - - - - - NNW 11 15 6 8 - - -
14/09:00am - - - - - NNW 11 15 6 8 - - -
14/08:30am - - - - - NNW 13 15 7 8 - - -
14/08:00am - - - - - N 17 19 9 10 - - -
14/07:30am - - - - - N 15 17 8 9 - - -
14/07:00am - - - - - NNW 13 15 7 8 - - -
14/06:30am - - - - - N 15 19 8 10 - - -
14/06:00am - - - - - N 17 20 9 11 - - -
14/05:30am - - - - - NNE 19 20 10 11 - - -
14/05:00am - - - - - NNE 19 24 10 13 - - -
14/04:30am - - - - - NNE 20 24 11 13 - - -
14/04:00am - - - - - NE 22 26 12 14 - - -
14/03:30am - - - - - NNE 20 24 11 13 - - -
14/03:00am - - - - - NNE 19 22 10 12 - - -
14/02:30am - - - - - NNE 19 20 10 11 - - -
14/02:00am - - - - - NNE 17 19 9 10 - - -
14/01:30am - - - - - NNE 17 20 9 11 - - -
14/01:00am - - - - - NNE 19 22 10 12 - - -
14/12:30am - - - - - NNE 22 30 12 16 - - -
14/12:00am - - - - - N 22 28 12 15 - - -
 
Date/Time
EDT
Temp
°C
App
Temp
°C
Dew
Point
Rel
Hum
%
Delta-T
°C
Wind Press
QNH
hPa
Press
MSL
hPa
Rain
since 9 am
mm
Dir
 
Spd
km/h
Gust
km/h
Spd
kts
Gust
kts
13/11:30pm - - - - - NNE 26 32 14 17 - - -
13/11:00pm - - - - - NNE 32 37 17 20 - - -
13/10:30pm - - - - - NNE 35 46 19 25 - - -
13/10:00pm - - - - - NE 37 43 20 23 - - -
13/09:30pm - - - - - NE 39 52 21 28 - - -
13/09:00pm - - - - - NE 37 48 20 26 - - -
13/08:30pm - - - - - NE 35 44 19 24 - - -
13/08:00pm - - - - - NE 39 48 21 26 - - -
13/07:30pm - - - - - NE 41 48 22 26 - - -
13/07:00pm - - - - - NE 39 48 21 26 - - -
13/06:30pm - - - - - NE 39 48 21 26 - - -
13/06:00pm - - - - - NE 41 48 22 26 - - -
13/05:30pm - - - - - NE 39 50 21 27 - - -
13/05:00pm - - - - - NE 41 48 22 26 - - -
13/04:30pm - - - - - NE 43 52 23 28 - - -
13/04:00pm - - - - - NE 39 46 21 25 - - -
13/03:30pm - - - - - NE 33 41 18 22 - - -
13/03:00pm - - - - - NE 35 43 19 23 - - -
13/02:30pm - - - - - NE 32 35 17 19 - - -
13/02:00pm - - - - - NE 30 33 16 18 - - -
13/01:30pm - - - - - NE 32 35 17 19 - - -
13/01:00pm - - - - - ENE 30 33 16 18 - - -
13/12:30pm - - - - - NE 30 33 16 18 - - -
13/12:00pm - - - - - NE 30 35 16 19 - - -
13/11:30am - - - - - NE 30 35 16 19 - - -
13/11:00am - - - - - NE 26 30 14 16 - - -
13/10:30am - - - - - NNE 22 30 12 16 - - -
13/10:00am - - - - - NNE 20 28 11 15 - - -
13/09:30am - - - - - NNE 19 22 10 12 - - -
13/09:00am - - - - - NNE 17 22 9 12 - - -
13/08:30am - - - - - N 13 15 7 8 - - -
13/08:00am - - - - - N 13 17 7 9 - - -
13/07:30am - - - - - NNW 11 15 6 8 - - -
13/07:00am - - - - - NNW 13 15 7 8 - - -
13/06:30am - - - - - N 13 17 7 9 - - -
13/06:00am - - - - - NNW 11 15 6 8 - - -
13/05:30am - - - - - NNW 11 13 6 7 - - -
13/05:00am - - - - - NNW 11 15 6 8 - - -
13/04:30am - - - - - NNW 15 17 8 9 - - -
13/04:00am - - - - - NNW 11 17 6 9 - - -
13/03:30am - - - - - N 15 19 8 10 - - -
13/03:00am - - - - - NNE 17 19 9 10 - - -
13/02:30am - - - - - NNE 19 24 10 13 - - -
13/02:00am - - - - - NNE 19 26 10 14 - - -
13/01:30am - - - - - NNE 19 26 10 14 - - -
13/01:00am - - - - - NNE 19 26 10 14 - - -
13/12:30am - - - - - NNE 22 28 12 15 - - -
13/12:00am - - - - - NE 22 28 12 15 - - -
 
Date/Time
EDT
Temp
°C
App
Temp
°C
Dew
Point
Rel
Hum
%
Delta-T
°C
Wind Press
QNH
hPa
Press
MSL
hPa
Rain
since 9 am
mm
Dir
 
Spd
km/h
Gust
km/h
Spd
kts
Gust
kts
12/11:30pm - - - - - NE 26 30 14 16 - - -
12/11:00pm - - - - - NE 26 32 14 17 - - -
12/10:30pm - - - - - NE 24 30 13 16 - - -
12/10:00pm - - - - - NE 32 39 17 21 - - -
12/09:30pm - - - - - ENE 32 37 17 20 - - -
12/09:00pm - - - - - ENE 30 35 16 19 - - -
12/08:30pm - - - - - ENE 28 35 15 19 - - -
12/08:00pm - - - - - ENE 32 35 17 19 - - -
12/07:30pm - - - - - ENE 32 37 17 20 - - -
12/07:00pm - - - - - ENE 32 37 17 20 - - -
12/06:30pm - - - - - ENE 32 37 17 20 - - -
12/06:00pm - - - - - E 30 37 16 20 - - -
12/05:30pm - - - - - ENE 28 33 15 18 - - -
12/05:00pm - - - - - ENE 28 32 15 17 - - -
12/04:30pm - - - - - ENE 28 32 15 17 - - -
12/04:00pm - - - - - ENE 26 32 14 17 - - -
12/03:30pm - - - - - ENE 28 32 15 17 - - -
12/03:00pm - - - - - E 28 32 15 17 - - -
12/02:30pm - - - - - E 24 30 13 16 - - -
12/02:00pm - - - - - ENE 24 28 13 15 - - -
12/01:30pm - - - - - ENE 26 30 14 16 - - -
12/01:00pm - - - - - E 22 26 12 14 - - -
12/12:30pm - - - - - E 20 22 11 12 - - -
12/12:00pm - - - - - E 19 24 10 13 - - -
12/11:30am - - - - - E 17 20 9 11 - - -
12/11:00am - - - - - ENE 6 9 3 5 - - -
12/10:30am - - - - - SSW 2 7 1 4 - - -
12/10:00am - - - - - CALM 0 0 0 0 - - -

Other Formats:

Comma delimited format used in spreadsheet applications
http://www.bom.gov.au/fwo/IDN60801/IDN60801.95756.axf

JavaScript Object Notation format (JSON) in row-major order
http://www.bom.gov.au/fwo/IDN60801/IDN60801.95756.json